sensor_id;sensor_type;location;lat;lon;timestamp;pressure;altitude;pressure_sealevel;temperature;humidity
59789;BME280;47353;51.614;5.530;2023-08-17T00:00:12;101850.16;;;19.43;83.53
59789;BME280;47353;51.614;5.530;2023-08-17T00:02:42;101849.84;;;19.45;83.16
59789;BME280;47353;51.614;5.530;2023-08-17T00:05:07;101851.94;;;19.39;82.27
59789;BME280;47353;51.614;5.530;2023-08-17T00:07:33;101850.47;;;19.42;81.97
59789;BME280;47353;51.614;5.530;2023-08-17T00:09:59;101844.22;;;19.31;82.16
59789;BME280;47353;51.614;5.530;2023-08-17T00:12:24;101848.91;;;19.36;81.89
59789;BME280;47353;51.614;5.530;2023-08-17T00:14:51;101845.06;;;19.32;81.77
59789;BME280;47353;51.614;5.530;2023-08-17T00:17:16;101846.72;;;19.33;82.06
59789;BME280;47353;51.614;5.530;2023-08-17T00:19:42;101849.31;;;19.29;81.57
59789;BME280;47353;51.614;5.530;2023-08-17T00:22:07;101848.50;;;19.29;81.87
59789;BME280;47353;51.614;5.530;2023-08-17T00:24:33;101835.34;;;19.24;81.35
59789;BME280;47353;51.614;5.530;2023-08-17T00:26:58;101835.75;;;19.18;80.83
59789;BME280;47353;51.614;5.530;2023-08-17T00:29:24;101838.34;;;19.14;81.57
59789;BME280;47353;51.614;5.530;2023-08-17T00:31:49;101841.69;;;19.16;81.85
59789;BME280;47353;51.614;5.530;2023-08-17T00:34:14;101835.53;;;19.14;81.85
59789;BME280;47353;51.614;5.530;2023-08-17T00:36:40;101840.03;;;19.15;81.50
59789;BME280;47353;51.614;5.530;2023-08-17T00:39:06;101838.97;;;19.11;81.41
59789;BME280;47353;51.614;5.530;2023-08-17T00:41:31;101834.81;;;19.09;82.32
59789;BME280;47353;51.614;5.530;2023-08-17T00:43:57;101835.75;;;19.04;81.33
59789;BME280;47353;51.614;5.530;2023-08-17T00:46:22;101840.09;;;18.97;82.61
59789;BME280;47353;51.614;5.530;2023-08-17T00:48:49;101841.84;;;18.93;83.13
59789;BME280;47353;51.614;5.530;2023-08-17T00:51:14;101842.84;;;18.83;83.15
59789;BME280;47353;51.614;5.530;2023-08-17T00:53:40;101840.34;;;18.82;83.70
59789;BME280;47353;51.614;5.530;2023-08-17T00:56:07;101841.59;;;18.76;84.32
59789;BME280;47353;51.614;5.530;2023-08-17T00:58:32;101837.13;;;18.75;84.92
59789;BME280;47353;51.614;5.530;2023-08-17T01:00:58;101842.50;;;18.71;85.25
59789;BME280;47353;51.614;5.530;2023-08-17T01:03:24;101840.84;;;18.70;84.82
59789;BME280;47353;51.614;5.530;2023-08-17T01:05:52;101851.53;;;18.68;85.12
59789;BME280;47353;51.614;5.530;2023-08-17T01:08:18;101843.66;;;18.70;85.87
59789;BME280;47353;51.614;5.530;2023-08-17T01:11:07;101849.81;;;18.72;84.72
59789;BME280;47353;51.614;5.530;2023-08-17T01:13:38;101852.63;;;18.72;85.81
59789;BME280;47353;51.614;5.530;2023-08-17T01:16:12;101848.88;;;18.77;85.85
59789;BME280;47353;51.614;5.530;2023-08-17T01:18:40;101842.75;;;18.75;86.39
59789;BME280;47353;51.614;5.530;2023-08-17T01:21:08;101842.50;;;18.71;86.31
59789;BME280;47353;51.614;5.530;2023-08-17T01:23:35;101847.59;;;18.69;86.85
59789;BME280;47353;51.614;5.530;2023-08-17T01:26:00;101847.31;;;18.71;85.81
59789;BME280;47353;51.614;5.530;2023-08-17T01:28:26;101835.72;;;18.59;87.00
59789;BME280;47353;51.614;5.530;2023-08-17T01:30:57;101847.47;;;18.61;87.14
59789;BME280;47353;51.614;5.530;2023-08-17T01:33:35;101843.81;;;18.60;87.40
59789;BME280;47353;51.614;5.530;2023-08-17T01:38:38;101833.03;;;18.54;87.34
59789;BME280;47353;51.614;5.530;2023-08-17T01:41:06;101831.13;;;18.49;87.99
59789;BME280;47353;51.614;5.530;2023-08-17T01:43:32;101824.38;;;18.50;87.96
59789;BME280;47353;51.614;5.530;2023-08-17T01:45:59;101829.22;;;18.45;88.53
59789;BME280;47353;51.614;5.530;2023-08-17T01:48:25;101833.41;;;18.47;87.89
59789;BME280;47353;51.614;5.530;2023-08-17T01:50:50;101829.31;;;18.40;88.58
59789;BME280;47353;51.614;5.530;2023-08-17T01:53:16;101828.19;;;18.41;87.69
59789;BME280;47353;51.614;5.530;2023-08-17T01:55:41;101825.22;;;18.32;88.23
59789;BME280;47353;51.614;5.530;2023-08-17T01:58:06;101830.28;;;18.30;88.68
59789;BME280;47353;51.614;5.530;2023-08-17T02:00:32;101828.63;;;18.29;89.32
59789;BME280;47353;51.614;5.530;2023-08-17T02:02:57;101836.50;;;18.27;89.38
59789;BME280;47353;51.614;5.530;2023-08-17T02:05:22;101833.78;;;18.22;88.87
59789;BME280;47353;51.614;5.530;2023-08-17T02:07:48;101833.47;;;18.23;89.26
59789;BME280;47353;51.614;5.530;2023-08-17T02:10:13;101827.19;;;18.13;89.41
59789;BME280;47353;51.614;5.530;2023-08-17T02:12:39;101830.53;;;18.15;89.38
59789;BME280;47353;51.614;5.530;2023-08-17T02:15:04;101827.25;;;18.08;89.89
59789;BME280;47353;51.614;5.530;2023-08-17T02:17:30;101837.13;;;18.05;90.12
59789;BME280;47353;51.614;5.530;2023-08-17T02:19:55;101839.97;;;18.00;89.64
59789;BME280;47353;51.614;5.530;2023-08-17T02:22:21;101828.84;;;17.95;89.59
59789;BME280;47353;51.614;5.530;2023-08-17T02:24:46;101840.66;;;17.92;89.97
59789;BME280;47353;51.614;5.530;2023-08-17T02:27:12;101827.63;;;17.83;90.02
59789;BME280;47353;51.614;5.530;2023-08-17T02:29:37;101836.13;;;17.78;89.33
59789;BME280;47353;51.614;5.530;2023-08-17T02:32:03;101833.63;;;17.76;90.11
59789;BME280;47353;51.614;5.530;2023-08-17T02:34:29;101828.97;;;17.67;89.63
59789;BME280;47353;51.614;5.530;2023-08-17T02:36:54;101824.72;;;17.69;89.48
59789;BME280;47353;51.614;5.530;2023-08-17T02:39:20;101825.34;;;17.66;89.39
59789;BME280;47353;51.614;5.530;2023-08-17T02:41:45;101827.03;;;17.67;89.81
59789;BME280;47353;51.614;5.530;2023-08-17T02:44:14;101830.38;;;17.64;89.70
59789;BME280;47353;51.614;5.530;2023-08-17T02:46:39;101826.13;;;17.72;89.20
59789;BME280;47353;51.614;5.530;2023-08-17T02:49:04;101829.59;;;17.64;89.57
59789;BME280;47353;51.614;5.530;2023-08-17T02:51:30;101828.97;;;17.67;89.42
59789;BME280;47353;51.614;5.530;2023-08-17T02:53:55;101822.00;;;17.64;89.72
59789;BME280;47353;51.614;5.530;2023-08-17T02:56:20;101818.06;;;17.65;89.50
59789;BME280;47353;51.614;5.530;2023-08-17T02:58:46;101822.53;;;17.66;89.17
59789;BME280;47353;51.614;5.530;2023-08-17T03:01:11;101828.44;;;17.65;89.07
59789;BME280;47353;51.614;5.530;2023-08-17T03:03:37;101821.41;;;17.67;89.53
59789;BME280;47353;51.614;5.530;2023-08-17T03:06:02;101826.47;;;17.65;89.83
59789;BME280;47353;51.614;5.530;2023-08-17T03:08:28;101817.22;;;17.65;89.89
59789;BME280;47353;51.614;5.530;2023-08-17T03:10:54;101827.59;;;17.64;90.04
59789;BME280;47353;51.614;5.530;2023-08-17T03:13:19;101810.09;;;17.54;89.71
59789;BME280;47353;51.614;5.530;2023-08-17T03:15:44;101821.78;;;17.61;88.88
59789;BME280;47353;51.614;5.530;2023-08-17T03:18:10;101819.88;;;17.56;89.63
59789;BME280;47353;51.614;5.530;2023-08-17T03:20:35;101821.25;;;17.59;89.95
59789;BME280;47353;51.614;5.530;2023-08-17T03:23:01;101816.25;;;17.56;89.29
59789;BME280;47353;51.614;5.530;2023-08-17T03:25:26;101805.34;;;17.54;90.11
59789;BME280;47353;51.614;5.530;2023-08-17T03:27:52;101814.28;;;17.56;90.19
59789;BME280;47353;51.614;5.530;2023-08-17T03:30:18;101814.03;;;17.53;90.27
59789;BME280;47353;51.614;5.530;2023-08-17T03:32:43;101808.97;;;17.55;89.74
59789;BME280;47353;51.614;5.530;2023-08-17T03:35:08;101812.69;;;17.50;90.57
59789;BME280;47353;51.614;5.530;2023-08-17T03:37:34;101805.66;;;17.53;90.49
59789;BME280;47353;51.614;5.530;2023-08-17T03:39:59;101812.69;;;17.50;91.28
59789;BME280;47353;51.614;5.530;2023-08-17T03:42:26;101807.16;;;17.45;91.35
59789;BME280;47353;51.614;5.530;2023-08-17T03:44:52;101811.59;;;17.46;91.33
59789;BME280;47353;51.614;5.530;2023-08-17T03:47:18;101806.03;;;17.41;91.56
59789;BME280;47353;51.614;5.530;2023-08-17T03:49:43;101812.75;;;17.40;92.05
59789;BME280;47353;51.614;5.530;2023-08-17T03:52:09;101803.38;;;17.31;92.58
59789;BME280;47353;51.614;5.530;2023-08-17T03:54:35;101798.63;;;17.32;92.91
59789;BME280;47353;51.614;5.530;2023-08-17T03:57:01;101801.16;;;17.28;93.60
59789;BME280;47353;51.614;5.530;2023-08-17T03:59:26;101799.03;;;17.20;94.05
59789;BME280;47353;51.614;5.530;2023-08-17T04:01:51;101807.41;;;17.20;94.30
59789;BME280;47353;51.614;5.530;2023-08-17T04:04:17;101806.06;;;17.18;94.84
59789;BME280;47353;51.614;5.530;2023-08-17T04:06:42;101810.94;;;17.07;95.15
59789;BME280;47353;51.614;5.530;2023-08-17T04:09:07;101815.44;;;17.03;95.09
59789;BME280;47353;51.614;5.530;2023-08-17T04:11:35;101814.59;;;17.03;95.52
59789;BME280;47353;51.614;5.530;2023-08-17T04:14:02;101818.09;;;16.90;96.57
59789;BME280;47353;51.614;5.530;2023-08-17T04:16:27;101828.69;;;16.93;96.64
59789;BME280;47353;51.614;5.530;2023-08-17T04:18:53;101826.47;;;16.95;96.84
59789;BME280;47353;51.614;5.530;2023-08-17T04:21:18;101832.06;;;16.95;97.43
59789;BME280;47353;51.614;5.530;2023-08-17T04:23:43;101833.72;;;16.96;97.28
59789;BME280;47353;51.614;5.530;2023-08-17T04:26:09;101842.94;;;16.96;97.12
59789;BME280;47353;51.614;5.530;2023-08-17T04:28:35;101831.75;;;16.96;97.03
59789;BME280;47353;51.614;5.530;2023-08-17T04:31:00;101839.25;;;17.01;96.84
59789;BME280;47353;51.614;5.530;2023-08-17T04:33:25;101841.25;;;16.95;97.61
59789;BME280;47353;51.614;5.530;2023-08-17T04:35:51;101844.59;;;16.97;97.44
59789;BME280;47353;51.614;5.530;2023-08-17T04:38:16;101842.66;;;16.98;97.64
59789;BME280;47353;51.614;5.530;2023-08-17T04:40:42;101850.22;;;16.92;97.76
59789;BME280;47353;51.614;5.530;2023-08-17T04:43:07;101837.09;;;16.93;97.45
59789;BME280;47353;51.614;5.530;2023-08-17T04:45:33;101845.75;;;16.96;97.81
59789;BME280;47353;51.614;5.530;2023-08-17T04:47:58;101844.06;;;16.95;97.53
59789;BME280;47353;51.614;5.530;2023-08-17T04:50:23;101847.69;;;16.96;97.42
59789;BME280;47353;51.614;5.530;2023-08-17T04:52:49;101845.44;;;16.98;97.30
59789;BME280;47353;51.614;5.530;2023-08-17T04:55:14;101839.03;;;16.92;97.13
59789;BME280;47353;51.614;5.530;2023-08-17T04:57:40;101844.91;;;16.96;97.17
59789;BME280;47353;51.614;5.530;2023-08-17T05:00:06;101844.31;;;16.99;97.64
59789;BME280;47353;51.614;5.530;2023-08-17T05:02:35;101838.44;;;16.95;97.36
59789;BME280;47353;51.614;5.530;2023-08-17T05:05:03;101844.91;;;16.96;97.20
59789;BME280;47353;51.614;5.530;2023-08-17T05:07:29;101833.66;;;17.01;96.75
59789;BME280;47353;51.614;5.530;2023-08-17T05:09:54;101845.63;;;17.06;96.82
59789;BME280;47353;51.614;5.530;2023-08-17T05:12:20;101833.88;;;17.04;96.49
59789;BME280;47353;51.614;5.530;2023-08-17T05:14:45;101829.69;;;17.07;96.46
59789;BME280;47353;51.614;5.530;2023-08-17T05:17:10;101826.00;;;17.11;96.70
59789;BME280;47353;51.614;5.530;2023-08-17T05:19:36;101828.50;;;17.13;95.68
59789;BME280;47353;51.614;5.530;2023-08-17T05:22:03;101828.94;;;17.20;95.86
59789;BME280;47353;51.614;5.530;2023-08-17T05:24:28;101837.06;;;17.21;95.44
59789;BME280;47353;51.614;5.530;2023-08-17T05:26:54;101827.50;;;17.27;95.21
59789;BME280;47353;51.614;5.530;2023-08-17T05:29:19;101828.00;;;17.29;94.98
59789;BME280;47353;51.614;5.530;2023-08-17T05:31:44;101827.97;;;17.34;95.05
59789;BME280;47353;51.614;5.530;2023-08-17T05:34:10;101832.41;;;17.35;95.59
59789;BME280;47353;51.614;5.530;2023-08-17T05:36:36;101830.66;;;17.44;95.55
59789;BME280;47353;51.614;5.530;2023-08-17T05:39:01;101826.16;;;17.43;94.82
59789;BME280;47353;51.614;5.530;2023-08-17T05:41:27;101830.28;;;17.51;94.96
59789;BME280;47353;51.614;5.530;2023-08-17T05:43:53;101828.59;;;17.55;94.88
59789;BME280;47353;51.614;5.530;2023-08-17T05:46:18;101837.13;;;17.63;94.43
59789;BME280;47353;51.614;5.530;2023-08-17T05:48:43;101839.88;;;17.68;93.48
59789;BME280;47353;51.614;5.530;2023-08-17T05:51:09;101843.44;;;17.74;93.96
59789;BME280;47353;51.614;5.530;2023-08-17T05:53:34;101837.38;;;17.67;93.60
59789;BME280;47353;51.614;5.530;2023-08-17T05:55:59;101838.38;;;17.76;94.05
59789;BME280;47353;51.614;5.530;2023-08-17T05:58:25;101841.16;;;17.76;93.31
59789;BME280;47353;51.614;5.530;2023-08-17T06:00:50;101843.66;;;17.77;93.54
59789;BME280;47353;51.614;5.530;2023-08-17T06:03:16;101851.31;;;17.72;93.67
59789;BME280;47353;51.614;5.530;2023-08-17T06:05:41;101848.03;;;17.65;93.60
59789;BME280;47353;51.614;5.530;2023-08-17T06:08:07;101859.63;;;17.77;94.19
59789;BME280;47353;51.614;5.530;2023-08-17T06:10:32;101862.53;;;17.72;93.76
59789;BME280;47353;51.614;5.530;2023-08-17T06:12:58;101864.94;;;17.78;94.41
59789;BME280;47353;51.614;5.530;2023-08-17T06:15:23;101868.56;;;17.79;94.12
59789;BME280;47353;51.614;5.530;2023-08-17T06:17:49;101865.13;;;17.87;93.90
59789;BME280;47353;51.614;5.530;2023-08-17T06:20:15;101861.94;;;17.93;94.00
59789;BME280;47353;51.614;5.530;2023-08-17T06:22:41;101870.69;;;18.10;92.27
59789;BME280;47353;51.614;5.530;2023-08-17T06:25:07;101870.75;;;18.24;92.41
59789;BME280;47353;51.614;5.530;2023-08-17T06:27:34;101865.91;;;18.48;91.06
59789;BME280;47353;51.614;5.530;2023-08-17T06:30:00;101862.09;;;18.58;90.13
59789;BME280;47353;51.614;5.530;2023-08-17T06:32:25;101861.44;;;18.79;89.66
59789;BME280;47353;51.614;5.530;2023-08-17T06:34:51;101863.06;;;18.99;87.92
59789;BME280;47353;51.614;5.530;2023-08-17T06:37:16;101865.94;;;19.26;87.67
59789;BME280;47353;51.614;5.530;2023-08-17T06:39:41;101859.19;;;19.40;84.98
59789;BME280;47353;51.614;5.530;2023-08-17T06:42:07;101853.91;;;19.66;84.37
59789;BME280;47353;51.614;5.530;2023-08-17T06:44:32;101864.16;;;19.98;83.13
59789;BME280;47353;51.614;5.530;2023-08-17T06:46:58;101863.94;;;20.21;81.33
59789;BME280;47353;51.614;5.530;2023-08-17T06:49:24;101871.41;;;20.26;79.56
59789;BME280;47353;51.614;5.530;2023-08-17T06:51:50;101868.06;;;20.24;79.47
59789;BME280;47353;51.614;5.530;2023-08-17T06:54:15;101863.38;;;20.33;79.48
59789;BME280;47353;51.614;5.530;2023-08-17T06:56:40;101868.38;;;20.36;78.99
59789;BME280;47353;51.614;5.530;2023-08-17T06:59:06;101874.06;;;20.44;79.39
59789;BME280;47353;51.614;5.530;2023-08-17T07:01:32;101872.84;;;20.37;77.21
59789;BME280;47353;51.614;5.530;2023-08-17T07:03:57;101879.09;;;20.34;78.02
59789;BME280;47353;51.614;5.530;2023-08-17T07:06:24;101873.63;;;20.51;79.00
59789;BME280;47353;51.614;5.530;2023-08-17T07:08:49;101881.53;;;20.49;78.96
59789;BME280;47353;51.614;5.530;2023-08-17T07:11:15;101882.00;;;20.64;77.81
59789;BME280;47353;51.614;5.530;2023-08-17T07:13:40;101879.00;;;20.83;77.33
59789;BME280;47353;51.614;5.530;2023-08-17T07:16:06;101880.34;;;20.85;75.00
59789;BME280;47353;51.614;5.530;2023-08-17T07:18:31;101880.22;;;20.90;76.16
59789;BME280;47353;51.614;5.530;2023-08-17T07:20:56;101875.59;;;20.94;76.15
59789;BME280;47353;51.614;5.530;2023-08-17T07:23:22;101877.19;;;20.87;75.52
59789;BME280;47353;51.614;5.530;2023-08-17T07:25:48;101886.84;;;20.94;75.38
59789;BME280;47353;51.614;5.530;2023-08-17T07:28:14;101868.78;;;21.09;75.38
59789;BME280;47353;51.614;5.530;2023-08-17T07:30:41;101874.31;;;21.22;73.89
59789;BME280;47353;51.614;5.530;2023-08-17T07:33:06;101879.06;;;21.44;73.93
59789;BME280;47353;51.614;5.530;2023-08-17T07:35:32;101886.81;;;21.38;72.20
59789;BME280;47353;51.614;5.530;2023-08-17T07:37:57;101881.72;;;21.49;71.61
59789;BME280;47353;51.614;5.530;2023-08-17T07:40:23;101884.56;;;21.49;71.45
59789;BME280;47353;51.614;5.530;2023-08-17T07:42:48;101884.69;;;21.44;72.08
59789;BME280;47353;51.614;5.530;2023-08-17T07:45:14;101887.69;;;21.48;72.70
59789;BME280;47353;51.614;5.530;2023-08-17T07:47:40;101877.00;;;21.36;71.62
59789;BME280;47353;51.614;5.530;2023-08-17T07:50:07;101882.75;;;21.22;71.41
59789;BME280;47353;51.614;5.530;2023-08-17T07:52:32;101882.09;;;21.25;73.11
59789;BME280;47353;51.614;5.530;2023-08-17T07:54:58;101882.84;;;21.09;72.65
59789;BME280;47353;51.614;5.530;2023-08-17T07:57:24;101883.16;;;21.07;74.43
59789;BME280;47353;51.614;5.530;2023-08-17T07:59:49;101882.69;;;20.92;74.57
59789;BME280;47353;51.614;5.530;2023-08-17T08:02:16;101890.47;;;20.86;74.43
59789;BME280;47353;51.614;5.530;2023-08-17T08:04:42;101886.44;;;21.01;75.08
59789;BME280;47353;51.614;5.530;2023-08-17T08:07:07;101883.78;;;20.96;75.18
59789;BME280;47353;51.614;5.530;2023-08-17T08:09:32;101885.03;;;21.12;74.48
59789;BME280;47353;51.614;5.530;2023-08-17T08:11:58;101886.59;;;21.26;73.62
59789;BME280;47353;51.614;5.530;2023-08-17T08:14:23;101883.81;;;21.35;74.08
59789;BME280;47353;51.614;5.530;2023-08-17T08:16:49;101890.81;;;21.37;77.13
59789;BME280;47353;51.614;5.530;2023-08-17T08:19:14;101891.16;;;21.44;82.89
59789;BME280;47353;51.614;5.530;2023-08-17T08:21:39;101882.41;;;21.15;74.29
59789;BME280;47353;51.614;5.530;2023-08-17T08:24:05;101890.84;;;21.15;73.82
59789;BME280;47353;51.614;5.530;2023-08-17T08:26:31;101883.03;;;20.90;73.33
59789;BME280;47353;51.614;5.530;2023-08-17T08:28:56;101883.22;;;20.94;74.46
59789;BME280;47353;51.614;5.530;2023-08-17T08:31:21;101889.97;;;20.93;74.91
59789;BME280;47353;51.614;5.530;2023-08-17T08:33:47;101888.22;;;20.75;74.76
59789;BME280;47353;51.614;5.530;2023-08-17T08:36:12;101890.19;;;20.74;75.34
59789;BME280;47353;51.614;5.530;2023-08-17T08:38:37;101892.88;;;20.79;75.28
59789;BME280;47353;51.614;5.530;2023-08-17T08:41:03;101893.06;;;20.83;76.16
59789;BME280;47353;51.614;5.530;2023-08-17T08:43:29;101893.00;;;20.74;75.65
59789;BME280;47353;51.614;5.530;2023-08-17T08:45:55;101894.16;;;20.73;75.35
59789;BME280;47353;51.614;5.530;2023-08-17T08:48:21;101893.97;;;20.70;75.94
59789;BME280;47353;51.614;5.530;2023-08-17T08:50:49;101899.66;;;20.56;76.53
59789;BME280;47353;51.614;5.530;2023-08-17T08:53:17;101899.84;;;20.60;76.40
59789;BME280;47353;51.614;5.530;2023-08-17T08:56:10;101885.84;;;20.68;76.40
59789;BME280;47353;51.614;5.530;2023-08-17T08:58:38;101885.00;;;20.46;76.11
59789;BME280;47353;51.614;5.530;2023-08-17T09:01:06;101885.84;;;20.33;76.56
59789;BME280;47353;51.614;5.530;2023-08-17T09:03:33;101881.81;;;20.25;77.04
59789;BME280;47353;51.614;5.530;2023-08-17T09:05:59;101888.50;;;20.29;77.29
59789;BME280;47353;51.614;5.530;2023-08-17T09:08:29;101884.56;;;20.17;77.68
59789;BME280;47353;51.614;5.530;2023-08-17T09:10:55;101882.66;;;20.12;78.09
59789;BME280;47353;51.614;5.530;2023-08-17T09:13:20;101888.91;;;20.23;77.76
59789;BME280;47353;51.614;5.530;2023-08-17T09:15:46;101874.16;;;20.17;78.11
59789;BME280;47353;51.614;5.530;2023-08-17T09:18:11;101878.50;;;20.23;78.13
59789;BME280;47353;51.614;5.530;2023-08-17T09:20:47;101879.00;;;20.25;77.47
59789;BME280;47353;51.614;5.530;2023-08-17T09:23:14;101880.16;;;20.24;78.07
59789;BME280;47353;51.614;5.530;2023-08-17T09:25:41;101879.41;;;20.32;78.84
59789;BME280;47353;51.614;5.530;2023-08-17T09:28:12;101888.50;;;20.29;77.82
59789;BME280;47353;51.614;5.530;2023-08-17T09:31:01;101869.59;;;20.43;77.37
59789;BME280;47353;51.614;5.530;2023-08-17T09:33:32;101872.91;;;20.45;78.06
59789;BME280;47353;51.614;5.530;2023-08-17T09:35:59;101874.59;;;20.46;77.24
59789;BME280;47353;51.614;5.530;2023-08-17T09:38:25;101866.94;;;20.60;77.13
59789;BME280;47353;51.614;5.530;2023-08-17T09:40:51;101861.78;;;20.62;77.24
59789;BME280;47353;51.614;5.530;2023-08-17T09:43:18;101871.44;;;20.70;77.02
59789;BME280;47353;51.614;5.530;2023-08-17T09:45:44;101862.56;;;20.76;76.35
59789;BME280;47353;51.614;5.530;2023-08-17T09:48:15;101858.78;;;20.81;76.37
59789;BME280;47353;51.614;5.530;2023-08-17T09:50:42;101865.44;;;20.85;76.70
59789;BME280;47353;51.614;5.530;2023-08-17T09:53:12;101856.69;;;20.86;76.11
59789;BME280;47353;51.614;5.530;2023-08-17T09:55:39;101848.88;;;20.83;75.78
59789;BME280;47353;51.614;5.530;2023-08-17T09:58:06;101855.59;;;20.74;76.67
59789;BME280;47353;51.614;5.530;2023-08-17T10:00:33;101859.25;;;20.96;76.79
59789;BME280;47353;51.614;5.530;2023-08-17T10:03:01;101859.81;;;20.85;77.07
59789;BME280;47353;51.614;5.530;2023-08-17T10:05:32;101859.53;;;20.73;76.38
59789;BME280;47353;51.614;5.530;2023-08-17T10:08:01;101848.88;;;20.83;76.91
59789;BME280;47353;51.614;5.530;2023-08-17T10:10:29;101850.97;;;20.78;76.93
59789;BME280;47353;51.614;5.530;2023-08-17T10:13:11;101844.38;;;20.96;77.50
59789;BME280;47353;51.614;5.530;2023-08-17T10:15:57;101847.91;;;21.10;76.03
59789;BME280;47353;51.614;5.530;2023-08-17T10:21:18;101843.38;;;21.31;75.91
59789;BME280;47353;51.614;5.530;2023-08-17T10:23:47;101840.91;;;21.29;75.52
59789;BME280;47353;51.614;5.530;2023-08-17T10:26:13;101836.13;;;21.38;76.03
59789;BME280;47353;51.614;5.530;2023-08-17T10:28:39;101835.59;;;21.36;75.20
59789;BME280;47353;51.614;5.530;2023-08-17T10:31:05;101825.84;;;21.34;76.32
59789;BME280;47353;51.614;5.530;2023-08-17T10:33:32;101830.69;;;21.42;76.09
59789;BME280;47353;51.614;5.530;2023-08-17T10:36:00;101832.13;;;21.39;75.53
59789;BME280;47353;51.614;5.530;2023-08-17T10:38:25;101839.19;;;21.20;75.61
59789;BME280;47353;51.614;5.530;2023-08-17T10:41:10;101836.25;;;21.33;76.54
59789;BME280;47353;51.614;5.530;2023-08-17T10:43:55;101831.13;;;21.35;75.83
59789;BME280;47353;51.614;5.530;2023-08-17T10:46:21;101837.88;;;21.26;75.89
59789;BME280;47353;51.614;5.530;2023-08-17T10:48:46;101836.72;;;21.27;76.07
59789;BME280;47353;51.614;5.530;2023-08-17T10:51:12;101828.78;;;21.29;75.48
59789;BME280;47353;51.614;5.530;2023-08-17T10:53:40;101847.78;;;21.15;76.22
59789;BME280;47353;51.614;5.530;2023-08-17T10:56:11;101855.78;;;21.30;75.65
59789;BME280;47353;51.614;5.530;2023-08-17T10:58:38;101847.13;;;21.18;75.33
59789;BME280;47353;51.614;5.530;2023-08-17T11:01:04;101835.72;;;21.23;76.38
59789;BME280;47353;51.614;5.530;2023-08-17T11:03:30;101840.38;;;21.27;75.81
59789;BME280;47353;51.614;5.530;2023-08-17T11:05:56;101834.59;;;21.32;76.44
59789;BME280;47353;51.614;5.530;2023-08-17T11:08:32;101839.28;;;21.45;75.93
59789;BME280;47353;51.614;5.530;2023-08-17T11:11:02;101832.19;;;21.57;75.16
59789;BME280;47353;51.614;5.530;2023-08-17T11:13:30;101833.22;;;21.61;73.83
59789;BME280;47353;51.614;5.530;2023-08-17T11:15:58;101840.28;;;21.80;73.64
59789;BME280;47353;51.614;5.530;2023-08-17T11:18:23;101825.69;;;21.87;74.00
59789;BME280;47353;51.614;5.530;2023-08-17T11:20:49;101840.31;;;22.06;74.40
59789;BME280;47353;51.614;5.530;2023-08-17T11:23:15;101841.81;;;22.20;72.08
59789;BME280;47353;51.614;5.530;2023-08-17T11:25:42;101846.31;;;22.13;72.02
59789;BME280;47353;51.614;5.530;2023-08-17T11:28:08;101845.47;;;22.04;72.12
59789;BME280;47353;51.614;5.530;2023-08-17T11:30:36;101850.78;;;22.05;72.65
59789;BME280;47353;51.614;5.530;2023-08-17T11:33:05;101837.66;;;22.09;72.34
59789;BME280;47353;51.614;5.530;2023-08-17T11:35:31;101844.81;;;22.15;72.17
59789;BME280;47353;51.614;5.530;2023-08-17T11:37:56;101846.47;;;22.25;71.72
59789;BME280;47353;51.614;5.530;2023-08-17T11:40:22;101842.97;;;22.36;71.13
59789;BME280;47353;51.614;5.530;2023-08-17T11:42:48;101843.97;;;22.49;70.54
59789;BME280;47353;51.614;5.530;2023-08-17T11:45:14;101841.38;;;22.61;70.90
59789;BME280;47353;51.614;5.530;2023-08-17T11:47:42;101841.03;;;22.54;71.16
59789;BME280;47353;51.614;5.530;2023-08-17T11:50:11;101842.66;;;22.55;70.76
59789;BME280;47353;51.614;5.530;2023-08-17T11:52:37;101847.78;;;22.44;71.09
59789;BME280;47353;51.614;5.530;2023-08-17T11:55:03;101844.00;;;22.40;71.71
59789;BME280;47353;51.614;5.530;2023-08-17T11:57:31;101845.47;;;22.38;71.71
59789;BME280;47353;51.614;5.530;2023-08-17T11:59:57;101851.44;;;22.28;72.34
59789;BME280;47353;51.614;5.530;2023-08-17T12:02:23;101841.34;;;22.27;72.12
59789;BME280;47353;51.614;5.530;2023-08-17T12:04:49;101836.38;;;22.24;71.97
59789;BME280;47353;51.614;5.530;2023-08-17T12:07:15;101835.53;;;22.23;72.71
59789;BME280;47353;51.614;5.530;2023-08-17T12:09:42;101839.34;;;22.19;72.06
59789;BME280;47353;51.614;5.530;2023-08-17T12:12:08;101838.00;;;22.25;72.22
59789;BME280;47353;51.614;5.530;2023-08-17T12:14:34;101836.84;;;22.26;71.76
59789;BME280;47353;51.614;5.530;2023-08-17T12:17:00;101831.72;;;22.19;72.17
59789;BME280;47353;51.614;5.530;2023-08-17T12:19:25;101835.53;;;22.23;72.30
59789;BME280;47353;51.614;5.530;2023-08-17T12:21:51;101839.31;;;22.27;72.14
59789;BME280;47353;51.614;5.530;2023-08-17T12:24:16;101836.03;;;22.25;72.00
59789;BME280;47353;51.614;5.530;2023-08-17T12:26:45;101841.34;;;22.27;72.77
59789;BME280;47353;51.614;5.530;2023-08-17T12:29:11;101846.31;;;22.30;72.87
59789;BME280;47353;51.614;5.530;2023-08-17T12:31:37;101838.84;;;22.25;72.87
59789;BME280;47353;51.614;5.530;2023-08-17T12:34:02;101829.22;;;22.26;73.34
59789;BME280;47353;51.614;5.530;2023-08-17T12:36:29;101834.19;;;22.38;71.67
59789;BME280;47353;51.614;5.530;2023-08-17T12:38:55;101833.88;;;22.39;72.20
59789;BME280;47353;51.614;5.530;2023-08-17T12:41:20;101838.16;;;22.37;72.58
59789;BME280;47353;51.614;5.530;2023-08-17T12:43:46;101842.34;;;22.39;72.05
59789;BME280;47353;51.614;5.530;2023-08-17T12:46:11;101843.63;;;22.33;72.61
59789;BME280;47353;51.614;5.530;2023-08-17T12:48:38;101843.81;;;22.20;72.08
59789;BME280;47353;51.614;5.530;2023-08-17T12:51:03;101849.47;;;22.45;72.49